sensor_id;sensor_type;location;lat;lon;timestamp;pressure;altitude;pressure_sealevel;temperature;humidity
69570;BME280;56781;42.292;23.146;2022-08-19T00:01:43;95327.56;;;15.55;95.26
69570;BME280;56781;42.292;23.146;2022-08-19T00:04:21;95375.44;;;15.91;96.29
69570;BME280;56781;42.292;23.146;2022-08-19T00:06:48;95318.06;;;15.82;94.52
69570;BME280;56781;42.292;23.146;2022-08-19T00:09:18;95329.41;;;16.00;93.58
69570;BME280;56781;42.292;23.146;2022-08-19T00:11:46;95319.41;;;15.88;92.61
69570;BME280;56781;42.292;23.146;2022-08-19T00:14:15;95362.47;;;16.09;91.82
69570;BME280;56781;42.292;23.146;2022-08-19T00:16:44;95378.59;;;16.18;91.57
69570;BME280;56781;42.292;23.146;2022-08-19T00:19:13;95368.00;;;16.13;92.54
69570;BME280;56781;42.292;23.146;2022-08-19T00:21:41;95372.03;;;16.19;92.21
69570;BME280;56781;42.292;23.146;2022-08-19T00:24:09;95321.75;;;15.90;92.48
69570;BME280;56781;42.292;23.146;2022-08-19T00:26:38;95337.84;;;15.99;92.03
69570;BME280;56781;42.292;23.146;2022-08-19T00:29:06;95326.03;;;16.03;90.95
69570;BME280;56781;42.292;23.146;2022-08-19T00:31:34;95330.00;;;15.81;91.73
69570;BME280;56781;42.292;23.146;2022-08-19T00:34:02;95332.88;;;15.64;94.19
69570;BME280;56781;42.292;23.146;2022-08-19T00:36:29;95345.94;;;15.74;93.70
69570;BME280;56781;42.292;23.146;2022-08-19T00:38:58;95325.56;;;15.64;94.04
69570;BME280;56781;42.292;23.146;2022-08-19T00:41:26;95347.28;;;15.68;93.44
69570;BME280;56781;42.292;23.146;2022-08-19T00:46:35;95344.59;;;15.92;93.45
69570;BME280;56781;42.292;23.146;2022-08-19T00:49:11;95390.06;;;16.03;91.90
69570;BME280;56781;42.292;23.146;2022-08-19T00:51:42;95347.41;;;15.84;91.69
69570;BME280;56781;42.292;23.146;2022-08-19T00:54:11;95350.91;;;15.84;91.86
69570;BME280;56781;42.292;23.146;2022-08-19T00:56:38;95379.94;;;16.00;91.20
69570;BME280;56781;42.292;23.146;2022-08-19T00:59:07;95361.03;;;15.87;91.39
69570;BME280;56781;42.292;23.146;2022-08-19T01:01:41;95388.59;;;16.05;91.73
69570;BME280;56781;42.292;23.146;2022-08-19T01:04:09;95384.56;;;15.99;92.04
69570;BME280;56781;42.292;23.146;2022-08-19T01:06:37;95362.25;;;15.90;91.50
69570;BME280;56781;42.292;23.146;2022-08-19T01:09:05;95359.47;;;15.86;90.84
69570;BME280;56781;42.292;23.146;2022-08-19T01:11:35;95341.94;;;15.47;92.13
69570;BME280;56781;42.292;23.146;2022-08-19T01:14:03;95363.00;;;15.66;92.70
69570;BME280;56781;42.292;23.146;2022-08-19T01:16:32;95324.78;;;15.39;92.58
69570;BME280;56781;42.292;23.146;2022-08-19T01:19:00;95303.31;;;14.97;93.85
69570;BME280;56781;42.292;23.146;2022-08-19T01:21:44;95358.91;;;15.23;94.64
69570;BME280;56781;42.292;23.146;2022-08-19T01:24:14;95361.81;;;15.30;95.07
69570;BME280;56781;42.292;23.146;2022-08-19T01:26:43;95327.19;;;15.20;96.32
69570;BME280;56781;42.292;23.146;2022-08-19T01:29:12;95374.47;;;15.50;95.77
69570;BME280;56781;42.292;23.146;2022-08-19T01:31:40;95339.50;;;15.42;94.96
69570;BME280;56781;42.292;23.146;2022-08-19T01:34:07;95351.53;;;15.57;93.19
69570;BME280;56781;42.292;23.146;2022-08-19T01:36:38;95340.69;;;15.32;92.27
69570;BME280;56781;42.292;23.146;2022-08-19T01:39:10;95343.50;;;15.23;93.06
69570;BME280;56781;42.292;23.146;2022-08-19T01:41:37;95357.91;;;15.40;93.46
69570;BME280;56781;42.292;23.146;2022-08-19T01:44:06;95371.97;;;15.45;93.51
69570;BME280;56781;42.292;23.146;2022-08-19T01:46:46;95364.09;;;15.40;93.54
69570;BME280;56781;42.292;23.146;2022-08-19T01:49:14;95372.56;;;15.51;93.55
69570;BME280;56781;42.292;23.146;2022-08-19T01:51:42;95355.31;;;15.31;93.70
69570;BME280;56781;42.292;23.146;2022-08-19T01:54:10;95366.03;;;15.52;93.58
69570;BME280;56781;42.292;23.146;2022-08-19T01:56:38;95354.44;;;15.39;94.25
69570;BME280;56781;42.292;23.146;2022-08-19T01:59:10;95333.06;;;15.34;93.67
69570;BME280;56781;42.292;23.146;2022-08-19T02:01:39;95336.44;;;15.43;92.73
69570;BME280;56781;42.292;23.146;2022-08-19T02:04:07;95364.41;;;15.72;91.14
69570;BME280;56781;42.292;23.146;2022-08-19T02:06:34;95331.75;;;15.65;93.04
69570;BME280;56781;42.292;23.146;2022-08-19T02:09:02;95340.53;;;15.74;92.99
69570;BME280;56781;42.292;23.146;2022-08-19T02:11:33;95322.78;;;15.61;91.15
69570;BME280;56781;42.292;23.146;2022-08-19T02:14:02;95345.94;;;15.74;91.03
69570;BME280;56781;42.292;23.146;2022-08-19T02:16:30;95356.19;;;15.81;92.29
69570;BME280;56781;42.292;23.146;2022-08-19T02:18:57;95363.06;;;15.78;92.19
69570;BME280;56781;42.292;23.146;2022-08-19T02:21:28;95324.66;;;15.48;91.89
69570;BME280;56781;42.292;23.146;2022-08-19T02:23:56;95361.44;;;15.52;90.35
69570;BME280;56781;42.292;23.146;2022-08-19T02:26:24;95328.56;;;14.93;91.39
69570;BME280;56781;42.292;23.146;2022-08-19T02:28:53;95339.41;;;14.72;91.66
69570;BME280;56781;42.292;23.146;2022-08-19T02:31:22;95337.66;;;14.46;93.36
69570;BME280;56781;42.292;23.146;2022-08-19T02:33:52;95325.72;;;14.35;94.01
69570;BME280;56781;42.292;23.146;2022-08-19T02:36:23;95325.25;;;14.33;93.67
69570;BME280;56781;42.292;23.146;2022-08-19T02:38:50;95352.22;;;14.54;93.05
69570;BME280;56781;42.292;23.146;2022-08-19T02:41:32;95371.34;;;14.61;94.39
69570;BME280;56781;42.292;23.146;2022-08-19T02:44:01;95363.72;;;14.63;95.34
69570;BME280;56781;42.292;23.146;2022-08-19T02:46:50;95367.63;;;14.66;96.05
69570;BME280;56781;42.292;23.146;2022-08-19T02:49:19;95333.44;;;14.66;94.35
69570;BME280;56781;42.292;23.146;2022-08-19T02:51:46;95357.19;;;14.85;95.18
69570;BME280;56781;42.292;23.146;2022-08-19T02:54:14;95322.50;;;14.62;95.25
69570;BME280;56781;42.292;23.146;2022-08-19T02:56:43;95325.00;;;14.68;96.37
69570;BME280;56781;42.292;23.146;2022-08-19T02:59:10;95363.84;;;14.88;96.28
69570;BME280;56781;42.292;23.146;2022-08-19T03:01:40;95347.69;;;15.00;93.91
69570;BME280;56781;42.292;23.146;2022-08-19T03:04:11;95371.91;;;15.21;91.81
69570;BME280;56781;42.292;23.146;2022-08-19T03:06:40;95336.75;;;14.84;91.19
69570;BME280;56781;42.292;23.146;2022-08-19T03:09:08;95331.06;;;14.65;92.27
69570;BME280;56781;42.292;23.146;2022-08-19T03:11:36;95347.81;;;14.70;92.40
69570;BME280;56781;42.292;23.146;2022-08-19T03:14:04;95338.88;;;14.57;92.22
69570;BME280;56781;42.292;23.146;2022-08-19T03:16:36;95364.75;;;14.50;92.86
69570;BME280;56781;42.292;23.146;2022-08-19T03:19:06;95349.88;;;14.52;92.82
69570;BME280;56781;42.292;23.146;2022-08-19T03:21:34;95347.78;;;14.28;94.21
69570;BME280;56781;42.292;23.146;2022-08-19T03:24:04;95333.72;;;14.23;94.30
69570;BME280;56781;42.292;23.146;2022-08-19T03:26:33;95350.97;;;14.22;95.36
69570;BME280;56781;42.292;23.146;2022-08-19T03:29:04;95343.56;;;14.18;96.00
69570;BME280;56781;42.292;23.146;2022-08-19T03:31:34;95349.88;;;14.23;96.00
69570;BME280;56781;42.292;23.146;2022-08-19T03:34:15;95333.81;;;14.05;96.51
69570;BME280;56781;42.292;23.146;2022-08-19T03:36:45;95353.69;;;14.22;96.17
69570;BME280;56781;42.292;23.146;2022-08-19T03:39:13;95349.88;;;14.23;95.09
69570;BME280;56781;42.292;23.146;2022-08-19T03:41:41;95376.47;;;14.24;95.79
69570;BME280;56781;42.292;23.146;2022-08-19T03:44:12;95362.34;;;14.06;95.73
69570;BME280;56781;42.292;23.146;2022-08-19T03:46:45;95353.50;;;13.97;96.29
69570;BME280;56781;42.292;23.146;2022-08-19T03:49:13;95359.19;;;14.04;95.72
69570;BME280;56781;42.292;23.146;2022-08-19T03:51:42;95358.66;;;14.11;96.29
69570;BME280;56781;42.292;23.146;2022-08-19T03:54:12;95401.91;;;14.35;95.45
69570;BME280;56781;42.292;23.146;2022-08-19T03:56:41;95377.47;;;14.19;95.24
69570;BME280;56781;42.292;23.146;2022-08-19T03:59:11;95381.84;;;14.24;95.36
69570;BME280;56781;42.292;23.146;2022-08-19T04:01:40;95393.09;;;14.26;96.03
69570;BME280;56781;42.292;23.146;2022-08-19T04:04:07;95390.88;;;14.28;94.23
69570;BME280;56781;42.292;23.146;2022-08-19T04:06:37;95350.88;;;13.88;95.27
69570;BME280;56781;42.292;23.146;2022-08-19T04:09:10;95406.38;;;14.31;95.88
69570;BME280;56781;42.292;23.146;2022-08-19T04:11:41;95380.59;;;14.22;95.76
69570;BME280;56781;42.292;23.146;2022-08-19T04:14:23;95408.09;;;14.36;95.84
69570;BME280;56781;42.292;23.146;2022-08-19T04:16:51;95376.06;;;14.13;95.47
69570;BME280;56781;42.292;23.146;2022-08-19T04:19:19;95387.72;;;14.26;95.64
69570;BME280;56781;42.292;23.146;2022-08-19T04:21:49;95379.53;;;14.14;96.08
69570;BME280;56781;42.292;23.146;2022-08-19T04:24:17;95383.47;;;14.16;96.89
69570;BME280;56781;42.292;23.146;2022-08-19T04:26:45;95385.28;;;14.33;95.92
69570;BME280;56781;42.292;23.146;2022-08-19T04:29:15;95381.53;;;14.26;96.59
69570;BME280;56781;42.292;23.146;2022-08-19T04:31:43;95390.44;;;14.47;96.78
69570;BME280;56781;42.292;23.146;2022-08-19T04:34:13;95390.88;;;14.49;97.03
69570;BME280;56781;42.292;23.146;2022-08-19T04:36:43;95412.88;;;14.81;96.42
69570;BME280;56781;42.292;23.146;2022-08-19T04:39:14;95383.69;;;14.62;96.56
69570;BME280;56781;42.292;23.146;2022-08-19T04:41:41;95392.63;;;14.75;95.80
69570;BME280;56781;42.292;23.146;2022-08-19T04:44:27;95440.78;;;15.18;95.47
69570;BME280;56781;42.292;23.146;2022-08-19T04:46:58;95405.16;;;15.13;95.10
69570;BME280;56781;42.292;23.146;2022-08-19T04:49:27;95385.19;;;15.26;94.18
69570;BME280;56781;42.292;23.146;2022-08-19T04:51:54;95404.59;;;15.52;93.40
69570;BME280;56781;42.292;23.146;2022-08-19T04:54:23;95432.03;;;15.88;92.18
69570;BME280;56781;42.292;23.146;2022-08-19T04:57:07;95390.94;;;15.82;91.70
69570;BME280;56781;42.292;23.146;2022-08-19T04:59:38;95407.41;;;16.02;90.99
69570;BME280;56781;42.292;23.146;2022-08-19T05:02:07;95392.88;;;16.18;89.04
69570;BME280;56781;42.292;23.146;2022-08-19T05:04:34;95411.72;;;16.55;89.52
69570;BME280;56781;42.292;23.146;2022-08-19T05:07:02;95418.50;;;16.61;89.58
69570;BME280;56781;42.292;23.146;2022-08-19T05:09:29;95443.91;;;16.97;88.59
69570;BME280;56781;42.292;23.146;2022-08-19T05:12:17;95442.72;;;17.11;86.71
69570;BME280;56781;42.292;23.146;2022-08-19T05:14:45;95407.50;;;16.95;87.67
69570;BME280;56781;42.292;23.146;2022-08-19T05:17:14;95396.44;;;17.00;87.48
69570;BME280;56781;42.292;23.146;2022-08-19T05:20:02;95438.22;;;17.43;86.93
69570;BME280;56781;42.292;23.146;2022-08-19T05:22:48;95443.09;;;17.53;87.03
69570;BME280;56781;42.292;23.146;2022-08-19T05:25:19;95414.38;;;17.48;87.06
69570;BME280;56781;42.292;23.146;2022-08-19T05:27:47;95417.19;;;17.52;86.20
69570;BME280;56781;42.292;23.146;2022-08-19T05:30:15;95435.66;;;17.78;85.79
69570;BME280;56781;42.292;23.146;2022-08-19T05:32:43;95436.63;;;18.02;85.53
69570;BME280;56781;42.292;23.146;2022-08-19T05:35:10;95427.53;;;18.10;83.51
69570;BME280;56781;42.292;23.146;2022-08-19T05:37:38;95428.16;;;18.35;81.43
69570;BME280;56781;42.292;23.146;2022-08-19T05:40:08;95409.06;;;18.47;82.25
69570;BME280;56781;42.292;23.146;2022-08-19T05:42:37;95428.25;;;18.74;80.46
69570;BME280;56781;42.292;23.146;2022-08-19T05:45:06;95429.63;;;18.83;81.35
69570;BME280;56781;42.292;23.146;2022-08-19T05:47:33;95426.81;;;19.15;79.36
69570;BME280;56781;42.292;23.146;2022-08-19T05:50:08;95432.31;;;19.38;78.31
69570;BME280;56781;42.292;23.146;2022-08-19T05:52:37;95432.94;;;19.51;76.07
69570;BME280;56781;42.292;23.146;2022-08-19T05:55:11;95428.41;;;19.59;76.05
69570;BME280;56781;42.292;23.146;2022-08-19T05:57:39;95366.88;;;19.24;74.85
69570;BME280;56781;42.292;23.146;2022-08-19T06:00:07;95398.59;;;19.62;72.88
69570;BME280;56781;42.292;23.146;2022-08-19T06:02:37;95429.47;;;19.93;72.63
69570;BME280;56781;42.292;23.146;2022-08-19T06:05:07;95393.56;;;20.07;73.83
69570;BME280;56781;42.292;23.146;2022-08-19T06:07:36;95423.22;;;20.65;72.61
69570;BME280;56781;42.292;23.146;2022-08-19T06:10:08;95409.88;;;20.56;72.92
69570;BME280;56781;42.292;23.146;2022-08-19T06:12:38;95435.84;;;20.77;73.55
69570;BME280;56781;42.292;23.146;2022-08-19T06:15:11;95413.91;;;20.93;72.51
69570;BME280;56781;42.292;23.146;2022-08-19T06:17:40;95423.44;;;21.10;72.68
69570;BME280;56781;42.292;23.146;2022-08-19T06:20:10;95427.81;;;21.18;71.97
69570;BME280;56781;42.292;23.146;2022-08-19T06:22:43;95379.44;;;21.04;72.20
69570;BME280;56781;42.292;23.146;2022-08-19T06:25:12;95403.19;;;21.41;70.78
69570;BME280;56781;42.292;23.146;2022-08-19T06:27:41;95416.84;;;21.82;70.07
69570;BME280;56781;42.292;23.146;2022-08-19T06:30:28;95420.13;;;21.98;69.40
69570;BME280;56781;42.292;23.146;2022-08-19T06:32:55;95418.44;;;22.24;68.29
69570;BME280;56781;42.292;23.146;2022-08-19T06:35:22;95418.19;;;22.43;68.73
69570;BME280;56781;42.292;23.146;2022-08-19T06:37:49;95398.72;;;22.45;67.58
69570;BME280;56781;42.292;23.146;2022-08-19T06:40:15;95418.25;;;22.54;68.92
69570;BME280;56781;42.292;23.146;2022-08-19T06:42:42;95415.97;;;22.63;67.34
69570;BME280;56781;42.292;23.146;2022-08-19T06:45:19;95378.94;;;22.62;67.44
69570;BME280;56781;42.292;23.146;2022-08-19T06:48:00;95404.03;;;22.86;65.03
69570;BME280;56781;42.292;23.146;2022-08-19T06:50:27;95403.00;;;23.05;66.10
69570;BME280;56781;42.292;23.146;2022-08-19T06:52:53;95393.72;;;23.27;63.24
69570;BME280;56781;42.292;23.146;2022-08-19T06:55:21;95382.03;;;23.44;63.29
69570;BME280;56781;42.292;23.146;2022-08-19T06:57:47;95397.75;;;23.80;61.74
69570;BME280;56781;42.292;23.146;2022-08-19T07:00:16;95394.25;;;23.79;61.57
69570;BME280;56781;42.292;23.146;2022-08-19T07:02:43;95389.19;;;23.81;62.01
69570;BME280;56781;42.292;23.146;2022-08-19T07:05:21;95357.84;;;23.50;63.55
69570;BME280;56781;42.292;23.146;2022-08-19T07:07:48;95402.09;;;23.95;62.49
69570;BME280;56781;42.292;23.146;2022-08-19T07:10:16;95412.25;;;24.09;61.93
69570;BME280;56781;42.292;23.146;2022-08-19T07:12:43;95411.06;;;24.21;61.78
69570;BME280;56781;42.292;23.146;2022-08-19T07:15:12;95393.09;;;24.34;60.63
69570;BME280;56781;42.292;23.146;2022-08-19T07:17:39;95361.84;;;24.17;60.82
69570;BME280;56781;42.292;23.146;2022-08-19T07:20:10;95417.28;;;24.86;60.07
69570;BME280;56781;42.292;23.146;2022-08-19T07:22:38;95376.19;;;24.93;57.87
69570;BME280;56781;42.292;23.146;2022-08-19T07:25:07;95415.69;;;25.06;58.42
69570;BME280;56781;42.292;23.146;2022-08-19T07:27:34;95410.16;;;25.28;57.05
69570;BME280;56781;42.292;23.146;2022-08-19T07:30:02;95394.53;;;25.17;53.53
69570;BME280;56781;42.292;23.146;2022-08-19T07:32:29;95403.78;;;25.52;55.59
69570;BME280;56781;42.292;23.146;2022-08-19T07:34:58;95392.69;;;25.70;56.09
69570;BME280;56781;42.292;23.146;2022-08-19T07:37:27;95389.47;;;25.93;53.80
69570;BME280;56781;42.292;23.146;2022-08-19T07:40:00;95395.59;;;26.12;54.53
69570;BME280;56781;42.292;23.146;2022-08-19T07:42:27;95371.63;;;26.16;54.20
69570;BME280;56781;42.292;23.146;2022-08-19T07:44:57;95394.47;;;26.50;54.76
69570;BME280;56781;42.292;23.146;2022-08-19T07:47:24;95369.47;;;26.41;54.05
69570;BME280;56781;42.292;23.146;2022-08-19T07:50:12;95387.53;;;26.80;54.56
69570;BME280;56781;42.292;23.146;2022-08-19T07:52:39;95332.91;;;26.51;52.61
69570;BME280;56781;42.292;23.146;2022-08-19T07:55:08;95404.53;;;27.06;53.00
69570;BME280;56781;42.292;23.146;2022-08-19T07:57:56;95409.09;;;27.19;53.00
69570;BME280;56781;42.292;23.146;2022-08-19T08:00:23;95386.13;;;27.03;53.69
69570;BME280;56781;42.292;23.146;2022-08-19T08:02:51;95396.22;;;27.13;51.26
69570;BME280;56781;42.292;23.146;2022-08-19T08:05:22;95399.94;;;27.33;49.97
69570;BME280;56781;42.292;23.146;2022-08-19T08:08:10;95405.78;;;27.35;53.21
69570;BME280;56781;42.292;23.146;2022-08-19T08:10:58;95384.59;;;27.63;51.96
69570;BME280;56781;42.292;23.146;2022-08-19T08:13:25;95343.28;;;27.39;51.98
69570;BME280;56781;42.292;23.146;2022-08-19T08:15:53;95388.47;;;27.69;52.05
69570;BME280;56781;42.292;23.146;2022-08-19T08:18:21;95379.31;;;27.76;49.58
69570;BME280;56781;42.292;23.146;2022-08-19T08:20:56;95363.03;;;27.89;51.53
69570;BME280;56781;42.292;23.146;2022-08-19T08:23:24;95374.41;;;27.91;50.78
69570;BME280;56781;42.292;23.146;2022-08-19T08:25:57;95341.22;;;27.74;48.90
69570;BME280;56781;42.292;23.146;2022-08-19T08:28:25;95345.59;;;27.99;48.88
69570;BME280;56781;42.292;23.146;2022-08-19T08:30:56;95357.44;;;28.19;50.57
69570;BME280;56781;42.292;23.146;2022-08-19T08:33:26;95374.91;;;28.33;48.47
69570;BME280;56781;42.292;23.146;2022-08-19T08:36:07;95366.44;;;28.23;47.43
69570;BME280;56781;42.292;23.146;2022-08-19T08:38:35;95362.94;;;28.19;48.92
69570;BME280;56781;42.292;23.146;2022-08-19T08:41:15;95346.69;;;28.28;50.15
69570;BME280;56781;42.292;23.146;2022-08-19T08:43:48;95321.41;;;28.34;48.97
69570;BME280;56781;42.292;23.146;2022-08-19T08:49:25;95321.19;;;28.48;48.76
69570;BME280;56781;42.292;23.146;2022-08-19T08:52:18;95290.78;;;28.32;48.65
69570;BME280;56781;42.292;23.146;2022-08-19T08:54:53;95346.09;;;28.84;48.48
69570;BME280;56781;42.292;23.146;2022-08-19T08:57:30;95341.78;;;28.83;47.41
69570;BME280;56781;42.292;23.146;2022-08-19T09:00:15;95282.47;;;28.55;50.40
69570;BME280;56781;42.292;23.146;2022-08-19T09:02:43;95302.97;;;28.54;49.63
69570;BME280;56781;42.292;23.146;2022-08-19T09:05:17;95342.22;;;29.02;49.21
69570;BME280;56781;42.292;23.146;2022-08-19T09:10:38;95298.97;;;28.79;48.96
69570;BME280;56781;42.292;23.146;2022-08-19T09:15:46;95333.16;;;29.01;50.44
69570;BME280;56781;42.292;23.146;2022-08-19T09:18:15;95290.47;;;28.89;50.96
69570;BME280;56781;42.292;23.146;2022-08-19T09:20:45;95331.28;;;29.18;49.02
69570;BME280;56781;42.292;23.146;2022-08-19T09:23:14;95308.34;;;29.01;47.97
69570;BME280;56781;42.292;23.146;2022-08-19T09:25:41;95323.69;;;29.22;49.67
69570;BME280;56781;42.292;23.146;2022-08-19T09:28:08;95314.59;;;29.42;50.83
69570;BME280;56781;42.292;23.146;2022-08-19T09:30:52;95303.66;;;29.38;46.06
69570;BME280;56781;42.292;23.146;2022-08-19T09:33:19;95277.75;;;29.15;49.22
69570;BME280;56781;42.292;23.146;2022-08-19T09:35:46;95298.66;;;29.33;46.57
69570;BME280;56781;42.292;23.146;2022-08-19T09:38:20;95295.13;;;29.32;48.39
69570;BME280;56781;42.292;23.146;2022-08-19T09:40:47;95297.97;;;29.29;46.95
69570;BME280;56781;42.292;23.146;2022-08-19T09:43:14;95274.06;;;29.02;45.88
69570;BME280;56781;42.292;23.146;2022-08-19T09:45:58;95295.34;;;29.22;45.39
69570;BME280;56781;42.292;23.146;2022-08-19T09:48:26;95295.97;;;29.29;47.06
69570;BME280;56781;42.292;23.146;2022-08-19T09:50:53;95254.91;;;29.15;45.03
69570;BME280;56781;42.292;23.146;2022-08-19T09:53:20;95286.25;;;29.41;49.36
69570;BME280;56781;42.292;23.146;2022-08-19T09:55:51;95276.91;;;29.71;48.98
69570;BME280;56781;42.292;23.146;2022-08-19T09:58:18;95263.00;;;29.75;46.72
69570;BME280;56781;42.292;23.146;2022-08-19T10:00:51;95255.53;;;29.75;46.42
69570;BME280;56781;42.292;23.146;2022-08-19T10:03:19;95268.47;;;29.95;45.95
69570;BME280;56781;42.292;23.146;2022-08-19T10:05:51;95221.28;;;29.56;43.58
69570;BME280;56781;42.292;23.146;2022-08-19T10:08:28;95253.81;;;29.81;45.66
69570;BME280;56781;42.292;23.146;2022-08-19T10:10:56;95240.41;;;29.80;45.74
69570;BME280;56781;42.292;23.146;2022-08-19T10:13:26;95215.78;;;29.73;44.65
69570;BME280;56781;42.292;23.146;2022-08-19T10:15:55;95199.75;;;29.68;43.41
69570;BME280;56781;42.292;23.146;2022-08-19T10:18:23;95197.06;;;29.80;45.99
69570;BME280;56781;42.292;23.146;2022-08-19T10:20:51;95251.69;;;30.18;43.83
69570;BME280;56781;42.292;23.146;2022-08-19T10:23:20;95236.94;;;30.25;44.63
69570;BME280;56781;42.292;23.146;2022-08-19T10:25:48;95218.97;;;30.17;43.42
69570;BME280;56781;42.292;23.146;2022-08-19T10:28:16;95248.94;;;30.47;44.15
69570;BME280;56781;42.292;23.146;2022-08-19T10:30:45;95242.84;;;30.40;43.22
69570;BME280;56781;42.292;23.146;2022-08-19T10:33:13;95244.69;;;30.30;43.55
69570;BME280;56781;42.292;23.146;2022-08-19T10:36:11;95241.41;;;30.35;44.60
69570;BME280;56781;42.292;23.146;2022-08-19T10:38:38;95232.66;;;30.37;41.98
69570;BME280;56781;42.292;23.146;2022-08-19T10:41:20;95195.16;;;30.23;44.29
69570;BME280;56781;42.292;23.146;2022-08-19T10:43:53;95231.13;;;30.65;44.07
69570;BME280;56781;42.292;23.146;2022-08-19T10:46:22;95233.34;;;30.70;46.09
69570;BME280;56781;42.292;23.146;2022-08-19T10:48:50;95225.59;;;30.65;44.38
69570;BME280;56781;42.292;23.146;2022-08-19T10:51:18;95232.63;;;30.82;44.46
69570;BME280;56781;42.292;23.146;2022-08-19T10:54:13;95231.06;;;30.94;43.19
69570;BME280;56781;42.292;23.146;2022-08-19T10:56:40;95174.50;;;30.57;41.89
69570;BME280;56781;42.292;23.146;2022-08-19T10:59:22;95186.78;;;30.68;41.93
69570;BME280;56781;42.292;23.146;2022-08-19T11:01:52;95223.59;;;30.95;43.60
69570;BME280;56781;42.292;23.146;2022-08-19T11:04:22;95203.66;;;30.87;40.79
69570;BME280;56781;42.292;23.146;2022-08-19T11:06:55;95192.00;;;30.79;42.49
69570;BME280;56781;42.292;23.146;2022-08-19T11:09:25;95213.38;;;30.91;45.28
69570;BME280;56781;42.292;23.146;2022-08-19T11:12:00;95165.44;;;30.69;40.59
69570;BME280;56781;42.292;23.146;2022-08-19T11:14:30;95176.00;;;30.87;39.04
69570;BME280;56781;42.292;23.146;2022-08-19T11:17:00;95202.22;;;31.08;37.79
69570;BME280;56781;42.292;23.146;2022-08-19T11:19:27;95189.81;;;31.00;39.45
69570;BME280;56781;42.292;23.146;2022-08-19T11:21:54;95206.91;;;31.11;41.51
69570;BME280;56781;42.292;23.146;2022-08-19T11:24:25;95207.53;;;31.15;44.18
69570;BME280;56781;42.292;23.146;2022-08-19T11:26:55;95147.91;;;30.76;40.01
69570;BME280;56781;42.292;23.146;2022-08-19T11:29:27;95185.41;;;31.15;39.22
69570;BME280;56781;42.292;23.146;2022-08-19T11:31:55;95156.78;;;31.09;37.41
69570;BME280;56781;42.292;23.146;2022-08-19T11:34:24;95131.66;;;30.90;38.48
69570;BME280;56781;42.292;23.146;2022-08-19T11:36:54;95184.09;;;31.32;36.45
69570;BME280;56781;42.292;23.146;2022-08-19T11:39:26;95192.94;;;31.40;39.58
69570;BME280;56781;42.292;23.146;2022-08-19T11:41:54;95187.63;;;31.46;39.70
69570;BME280;56781;42.292;23.146;2022-08-19T11:44:21;95185.31;;;31.57;46.31
69570;BME280;56781;42.292;23.146;2022-08-19T11:46:49;95151.09;;;31.51;38.28
69570;BME280;56781;42.292;23.146;2022-08-19T11:49:17;95135.41;;;31.48;40.30
69570;BME280;56781;42.292;23.146;2022-08-19T11:51:46;95178.63;;;31.67;38.33
69570;BME280;56781;42.292;23.146;2022-08-19T11:54:14;95173.38;;;31.47;34.73
69570;BME280;56781;42.292;23.146;2022-08-19T11:56:43;95121.13;;;31.24;35.90
69570;BME280;56781;42.292;23.146;2022-08-19T11:59:10;95100.16;;;31.13;35.08
69570;BME280;56781;42.292;23.146;2022-08-19T12:01:40;95162.97;;;31.51;36.90
69570;BME280;56781;42.292;23.146;2022-08-19T12:04:09;95159.88;;;31.49;37.66
69570;BME280;56781;42.292;23.146;2022-08-19T12:06:38;95157.31;;;31.55;34.00
69570;BME280;56781;42.292;23.146;2022-08-19T12:09:07;95149.56;;;31.50;36.00
69570;BME280;56781;42.292;23.146;2022-08-19T12:11:36;95153.09;;;31.50;37.21
69570;BME280;56781;42.292;23.146;2022-08-19T12:14:05;95141.81;;;31.45;36.46
69570;BME280;56781;42.292;23.146;2022-08-19T12:16:32;95143.28;;;31.84;35.86
69570;BME280;56781;42.292;23.146;2022-08-19T12:19:04;95138.16;;;31.95;38.45
69570;BME280;56781;42.292;23.146;2022-08-19T12:21:33;95128.41;;;31.91;38.22
69570;BME280;56781;42.292;23.146;2022-08-19T12:24:02;95124.31;;;31.95;34.71
69570;BME280;56781;42.292;23.146;2022-08-19T12:26:30;95099.84;;;31.81;38.48
69570;BME280;56781;42.292;23.146;2022-08-19T12:28:58;95132.69;;;32.05;36.39
69570;BME280;56781;42.292;23.146;2022-08-19T12:31:29;95120.03;;;31.82;34.28
69570;BME280;56781;42.292;23.146;2022-08-19T12:33:57;95060.47;;;31.42;36.21
69570;BME280;56781;42.292;23.146;2022-08-19T12:36:24;95120.94;;;31.78;35.40
69570;BME280;56781;42.292;23.146;2022-08-19T12:38:52;95115.59;;;31.84;37.03
69570;BME280;56781;42.292;23.146;2022-08-19T12:41:20;95081.28;;;31.82;38.65
69570;BME280;56781;42.292;23.146;2022-08-19T12:43:49;95112.78;;;31.97;36.23
69570;BME280;56781;42.292;23.146;2022-08-19T12:46:18;95087.06;;;31.74;35.70
69570;BME280;56781;42.292;23.146;2022-08-19T12:48:47;95082.19;;;31.78;35.36
69570;BME280;56781;42.292;23.146;2022-08-19T12:51:20;95073.16;;;31.65;40.49
69570;BME280;56781;42.292;23.146;2022-08-19T12:53:48;95064.91;;;31.74;38.58
69570;BME280;56781;42.292;23.146;2022-08-19T12:56:16;95099.94;;;32.03;34.66
69570;BME280;56781;42.292;23.146;2022-08-19T12:58:48;95102.16;;;32.17;35.92
69570;BME280;56781;42.292;23.146;2022-08-19T13:01:18;95098.31;;;32.15;38.85
69570;BME280;56781;42.292;23.146;2022-08-19T13:03:49;95089.75;;;32.22;39.01
69570;BME280;56781;42.292;23.146;2022-08-19T13:06:16;95086.19;;;32.21;34.05
69570;BME280;56781;42.292;23.146;2022-08-19T13:08:46;95089.41;;;32.20;35.39
69570;BME280;56781;42.292;23.146;2022-08-19T13:11:15;95078.97;;;32.02;36.57
69570;BME280;56781;42.292;23.146;2022-08-19T13:13:46;95053.09;;;31.96;37.30
69570;BME280;56781;42.292;23.146;2022-08-19T13:16:14;95087.41;;;32.20;38.09
69570;BME280;56781;42.292;23.146;2022-08-19T13:18:45;95086.13;;;32.12;36.09